Spencer, North Dakota
Current Conditions -  °F | °C
As of 5:55 PM on Wednesday 22 Oct 2014 (Local Time) from K08D Reporting Station
Overcast Overcast  
Wind Chill: 55°   Ceiling: 5000
Heat Index: 55°   Visibility: 10mi
Dew Point: 45°   Wind: 13mph
Humidity: 67%   Direction: 270°W
Pressure: 29.81"   Gusts: 20mph
Location:  48.6651°N, 102.033°W
Report Text: K08D 222255Z AUTO 27011G17KT 10SM OVC050 13/07 A2981 RMK AO2
Loading
Personal Weather Stations






























Interactive Weather Map
Tropical Storm Tracking
New forecast layout! Learn more

10-Day Weather Forecast

Advertisements
Track Severe Weather on mobile